VA44 weather

Rose Retreat Farm Airport
Goochland, Virginia, United States

Public forecast

Using degrees Fahrenheit for public forecast. Weather courtesy of forecast.io.

METAR (pilot weather report)

Closest report is Louisa County Airport/Freeman Field, 18.1 nm (33.4 km) NNW. Retrieved 2019/09/24 07:35 UTC (3 minutes ago):

KLKU 240735Z AUTO 02003KT 10SM SCT100 19/17 A2991 RMK AO2 T01910172

TAF (pilot weather forecast)

Closest forecast is Richmond International Airport, 29.7 nm (55.0 km) ESE. Retrieved 2019/09/24 06:22 UTC (1 hour ago):

TAF KRIC 240520Z 2406/2506 25006KT P6SM BKN070 FM240900 31004KT P6SM BKN100 FM241200 35008KT P6SM SKC FM250100 VRB03KT P6SM SKC